Arnett, West Virginia
Current Conditions -  °F | °C
As of 8:51 PM on Sunday 23 Nov 2014 (Local Time) from KBKW Reporting Station
Moderate Rain Moderate Rain  
Wind Chill: 52°   Ceiling: 9000
Heat Index: 52°   Visibility: 6mi
Dew Point: 48°   Wind: 24mph
Humidity: 86%   Direction: 130°SE
Pressure: 29.66"   Gusts: 41mph
Location:  37.83°N, 81.43°W
Report Text: KBKW 240151Z AUTO 13021G36KT 6SM RA BR FEW011 FEW040 OVC090 11/09 A2966 RMK AO2 PK WND 13036/0146 SLP041 P0007 T01110089
Loading
Personal Weather Stations






























Interactive Weather Map New forecast layout! Learn more

10-Day Weather Forecast

Advertisements
Track Severe Weather on mobile